Airfield :







YOU CAN JOIN US ON...

 
LOGIN :

Register | Disclaimer

   EN    FR    IT 

 









Legend :    VFR   Marginal VFR   IFR   Intensive IFR   Very Intensive IFR
Visi :
Ceiling :
>= 8 km
>= 3000ft
5 to 8 km
1000 to 3000 ft
1500m to 5 km
500 to 1000 ft
800 to 1500m
200 to 500 ft
< 800m
< 200 ft
Symbols :   Thunderstorms  Fog  Heavy snow  Heavy precipitations  Wind > 20 kt






- Airport Elevation : 988 ft


KFVE - Northern Aroostook Regional

CURRENT METAR :
  • 221953Z AUTO 17009KT 1/4SM -SN FG VV002 01/00 A2930 RMK AO2 SLP931 P0003 T00060000

EXPIRED METARs :
  • 221906Z AUTO 16010KT 1/2SM -SN FG VV002 01/00 A2932 RMK AO2 P0001 T00060000
  • 221853Z AUTO 17010KT 1 1/4SM -SN BR OVC002 01/00 A2933 RMK AO2 VIS 3/4V2 1/2 FZRAE17SNB17 SLP941 P0004 I1000 T00060000
  • 221844Z AUTO 17009KT 3/4SM -SN BR VV002 01/00 A2933 RMK AO2 FZRAE17SNB17 P0004 I1000 T00060000
  • 221833Z AUTO 17008KT 1SM -SN BR VV002 00/00 A2934 RMK AO2 FZRAE17SNB17 P0004 I1000 T00000000
  • 221821Z AUTO 17010KT 3/4SM -SN BR VV002 00/00 A2935 RMK AO2 FZRAE17SNB17 P0002 I1000 T00000000
  • 221816Z AUTO 17009KT 1SM -FZRA BR VV002 00/00 A2935 RMK AO2 P0002 I1000 T00000000
  • 221805Z AUTO 17007KT 1 1/2SM -FZRA BR OVC003 00/00 A2935 RMK AO2 P0001 I1000 T00000000
  • 221740Z AUTO 16010KT 1SM -FZRA BR VV002 00/M01 A2935 RMK AO2 P0005 I1005 T00001006
  • 221733Z AUTO 16011KT 3/4SM FZRA BR VV002 00/M01 A2936 RMK AO2 P0004 I1004 T00001006

TAF KFVE
Valid from the 22 at 19:00 until the 23 at 18:00 UTC


221927Z 2219/2318 17013KT 1/2SM SNRA OVC002 WS020/21040KT
FM222030 18013KT 1SM -RA BR OVC004 WS020/22035KT
FM222300 22010G19KT 5SM BR BKN012
FM230300 28013G23KT P6SM VCSH BKN017
FM231100 30016G31KT P6SM BKN035



MET'MAP, your aeronautical weather chart ! - Copyright ORBIFLY December 2007 - Disclaimer

ORBIFLY MET'MAP TEAM :

Programming & Development : Alexandra Zaïnal
Concept & Development : Baudouin d'Aumeries
Co-Development & Prog : Marc-Olivier Méhu
Technical & hardware support : Manuel Goepfert

Contact : metmap@orbifly.com




SOURCES & CREDITS :

   NOAA